Time;durP1;ratioP1;P1;durP2;ratioP2;P2;SDS_P1;SDS_P2;PMS_P1;PMS_P2;Temp;Humidity;BMP_temperature;BMP_pressure;BME280_temperature;BME280_humidity;BME280_pressure;Samples;Min_cycle;Max_cycle;Signal;HPM_P1;HPM_P2
2020/12/13 00:02:12;;;;;;;44.47;19.73;;;7.60;99.90;;;;;;5031872;28;20052;-61
2020/12/13 00:04:58;;;;;;;40.65;20.55;;;7.50;99.90;;;;;;5031456;28;20033;-61
2020/12/13 00:07:44;;;;;;;40.92;19.92;;;7.50;99.90;;;;;;5031275;28;20033;-61
2020/12/13 00:10:31;;;;;;;43.35;21.52;;;7.40;99.90;;;;;;5033063;28;20402;-61
2020/12/13 00:13:17;;;;;;;39.72;19.80;;;7.30;99.90;;;;;;5031237;28;20037;-60
2020/12/13 00:16:03;;;;;;;42.45;20.13;;;7.40;99.90;;;;;;5030579;28;20088;-61
2020/12/13 00:18:49;;;;;;;42.92;20.13;;;7.40;99.90;;;;;;5030705;28;20045;-61
2020/12/13 00:21:35;;;;;;;46.45;20.35;;;7.40;99.90;;;;;;5030604;28;20500;-61
2020/12/13 00:24:22;;;;;;;35.03;19.10;;;7.40;99.90;;;;;;5030673;28;20552;-61
2020/12/13 00:27:08;;;;;;;36.40;19.17;;;7.50;99.90;;;;;;5004408;28;20514;-61
2020/12/13 00:29:54;;;;;;;39.95;19.88;;;7.40;99.90;;;;;;5030840;28;20099;-61
2020/12/13 00:32:40;;;;;;;40.17;20.10;;;7.50;99.90;;;;;;5030303;28;20029;-61
2020/12/13 00:35:27;;;;;;;35.15;18.33;;;7.50;99.90;;;;;;5031527;28;20197;-61
2020/12/13 00:38:12;;;;;;;37.88;19.38;;;7.60;99.90;;;;;;5029612;28;20048;-61
2020/12/13 00:40:59;;;;;;;39.30;18.85;;;7.80;99.90;;;;;;5031599;28;20041;-61
2020/12/13 00:43:45;;;;;;;38.10;19.02;;;7.70;99.90;;;;;;5034701;28;20061;-61
2020/12/13 00:46:31;;;;;;;33.63;18.10;;;7.80;99.90;;;;;;5037817;28;20036;-62
2020/12/13 00:49:17;;;;;;;36.20;19.10;;;7.90;99.90;;;;;;5037394;28;20501;-61
2020/12/13 00:52:05;;;;;;;36.40;18.60;;;7.90;99.90;;;;;;5036733;28;20068;-61
2020/12/13 00:54:51;;;;;;;34.47;18.73;;;7.90;99.90;;;;;;5037895;28;20040;-61
2020/12/13 00:57:37;;;;;;;36.72;18.27;;;7.90;99.90;;;;;;5022710;28;20128;-62
2020/12/13 01:00:23;;;;;;;39.10;18.85;;;7.90;99.90;;;;;;5037242;28;20037;-61
2020/12/13 01:03:09;;;;;;;35.92;18.23;;;7.80;99.90;;;;;;5024157;28;20029;-61
2020/12/13 01:05:55;;;;;;;31.05;17.60;;;7.90;99.90;;;;;;5036673;28;20021;-61
2020/12/13 01:08:41;;;;;;;38.90;19.23;;;7.90;99.90;;;;;;5037818;28;20052;-61
2020/12/13 01:11:31;;;;;;;36.33;18.45;;;7.90;99.90;;;;;;5037128;28;20041;-61
2020/12/13 01:14:17;;;;;;;31.45;17.77;;;7.90;99.90;;;;;;5022172;28;20481;-61
2020/12/13 01:17:03;;;;;;;49.97;20.27;;;7.90;99.90;;;;;;5036578;28;20437;-61
2020/12/13 01:19:49;;;;;;;40.20;19.02;;;7.90;99.90;;;;;;5037130;28;20124;-60
2020/12/13 01:22:36;;;;;;;39.95;17.60;;;7.90;99.90;;;;;;5035941;28;20045;-61
2020/12/13 01:25:22;;;;;;;40.88;18.80;;;7.90;99.90;;;;;;5036171;28;20036;-61
2020/12/13 01:28:08;;;;;;;36.00;19.10;;;7.90;99.90;;;;;;5036605;28;20041;-61
2020/12/13 01:30:54;;;;;;;33.72;18.73;;;7.90;99.90;;;;;;5037094;28;20470;-61
2020/12/13 01:33:41;;;;;;;33.00;17.38;;;7.90;99.90;;;;;;5037497;28;20064;-61
2020/12/13 01:36:27;;;;;;;34.92;18.23;;;7.80;99.90;;;;;;5038140;28;20482;-61
2020/12/13 01:39:13;;;;;;;37.10;19.10;;;7.70;99.90;;;;;;5035627;28;20044;-61
2020/12/13 01:42:00;;;;;;;33.78;18.45;;;7.70;99.90;;;;;;5036589;28;20049;-61
2020/12/13 01:44:46;;;;;;;34.92;18.77;;;7.60;99.90;;;;;;5036441;28;20490;-61
2020/12/13 01:47:32;;;;;;;32.88;17.98;;;7.60;99.90;;;;;;5035970;28;20498;-61
2020/12/13 01:53:34;;;;;;;31.83;16.17;;;7.60;99.90;;;;;;5026773;28;20045;-62
2020/12/13 01:56:20;;;;;;;34.38;16.77;;;7.70;99.90;;;;;;5031902;28;20128;-61
2020/12/13 01:59:08;;;;;;;37.83;17.38;;;7.60;99.90;;;;;;5034171;28;20376;-61
2020/12/13 02:02:02;;;;;;;32.40;17.40;;;7.60;99.90;;;;;;5018491;28;20107;-61
2020/12/13 02:04:55;;;;;;;29.23;16.45;;;7.70;99.90;;;;;;5018464;28;20045;-61
2020/12/13 02:07:42;;;;;;;39.60;17.20;;;7.90;99.90;;;;;;5033609;28;20038;-61
2020/12/13 02:10:28;;;;;;;33.15;17.70;;;8.00;99.90;;;;;;5033621;28;20055;-61
2020/12/13 02:13:14;;;;;;;32.83;17.67;;;7.90;99.90;;;;;;5033384;28;20041;-61
2020/12/13 02:16:01;;;;;;;33.45;18.63;;;7.90;99.90;;;;;;5032625;28;20095;-61
2020/12/13 02:18:47;;;;;;;31.33;17.38;;;7.90;99.90;;;;;;5032330;28;20069;-61
2020/12/13 02:21:33;;;;;;;35.25;18.63;;;7.70;99.90;;;;;;5033330;28;20064;-61
2020/12/13 02:24:20;;;;;;;31.40;17.00;;;7.70;99.90;;;;;;5032587;28;20037;-61
2020/12/13 02:27:08;;;;;;;31.25;16.08;;;7.80;99.90;;;;;;5033673;28;20068;-61
2020/12/13 02:29:54;;;;;;;36.28;17.27;;;7.80;99.90;;;;;;5033177;28;20040;-61
2020/12/13 02:32:40;;;;;;;28.73;16.60;;;7.90;99.90;;;;;;5033021;28;20037;-61
2020/12/13 02:35:26;;;;;;;28.90;15.95;;;8.00;99.90;;;;;;5017807;28;20532;-61
2020/12/13 02:38:12;;;;;;;30.30;16.10;;;8.00;99.90;;;;;;5018975;28;20405;-61
2020/12/13 02:41:00;;;;;;;27.30;15.98;;;8.00;99.90;;;;;;5032345;28;20089;-61
2020/12/13 02:43:46;;;;;;;30.10;16.58;;;8.00;99.90;;;;;;5018811;28;20037;-59
2020/12/13 02:46:32;;;;;;;27.80;15.05;;;8.00;99.90;;;;;;5033459;28;20173;-60
2020/12/13 02:49:18;;;;;;;27.83;15.85;;;7.90;99.90;;;;;;5032226;28;20536;-60
2020/12/13 02:52:04;;;;;;;36.33;17.77;;;7.70;99.90;;;;;;5032720;28;20549;-60
2020/12/13 02:54:50;;;;;;;27.92;15.80;;;7.70;99.90;;;;;;5032754;28;20040;-61
2020/12/13 02:57:40;;;;;;;33.28;16.38;;;7.80;99.90;;;;;;5032341;28;20076;-60
2020/12/13 03:00:26;;;;;;;28.83;15.65;;;7.90;99.90;;;;;;5033224;28;20052;-60
2020/12/13 03:03:12;;;;;;;30.60;15.85;;;7.90;99.90;;;;;;5032091;28;20038;-61
2020/12/13 03:05:58;;;;;;;27.55;15.10;;;7.90;99.90;;;;;;5031699;28;20037;-61
2020/12/13 03:08:44;;;;;;;28.85;15.13;;;7.80;99.90;;;;;;5033149;28;20479;-60
2020/12/13 03:11:31;;;;;;;31.33;15.88;;;7.80;99.90;;;;;;5032129;28;20092;-60
2020/12/13 03:14:17;;;;;;;29.85;15.90;;;7.80;99.90;;;;;;5032308;28;20037;-60
2020/12/13 03:17:03;;;;;;;26.75;15.50;;;7.80;99.90;;;;;;5032016;28;20466;-60
2020/12/13 03:19:49;;;;;;;26.92;14.57;;;7.70;99.90;;;;;;5030562;28;20034;-60
2020/12/13 03:22:36;;;;;;;25.77;14.75;;;7.60;99.90;;;;;;5032796;28;20080;-60
2020/12/13 03:25:22;;;;;;;29.55;15.00;;;7.70;99.90;;;;;;5031958;28;20076;-60
2020/12/13 03:28:08;;;;;;;27.55;13.68;;;7.80;99.90;;;;;;5033114;28;20466;-60
2020/12/13 03:30:54;;;;;;;28.05;14.25;;;7.70;99.90;;;;;;5033793;28;20096;-60
2020/12/13 03:33:40;;;;;;;26.55;14.38;;;7.60;99.90;;;;;;5017867;28;20070;-60
2020/12/13 03:36:26;;;;;;;28.77;15.40;;;7.80;99.90;;;;;;5031266;28;20144;-60
2020/12/13 03:39:12;;;;;;;27.77;14.50;;;7.90;99.90;;;;;;5017732;28;20546;-60
2020/12/13 03:41:58;;;;;;;25.67;13.30;;;8.00;99.90;;;;;;5031149;28;20140;-60
2020/12/13 03:44:44;;;;;;;25.38;14.38;;;8.00;99.90;;;;;;5031864;28;20065;-60
2020/12/13 03:47:30;;;;;;;27.85;12.98;;;8.00;99.90;;;;;;5032312;28;20041;-60
2020/12/13 03:50:16;;;;;;;36.60;15.05;;;8.00;99.90;;;;;;5032969;28;20096;-60
2020/12/13 03:53:02;;;;;;;24.52;14.30;;;8.00;99.90;;;;;;5032291;28;20498;-61
2020/12/13 03:55:48;;;;;;;26.55;13.93;;;8.00;99.90;;;;;;5032191;28;20410;-60
2020/12/13 03:58:34;;;;;;;26.13;13.25;;;8.00;99.90;;;;;;5032303;28;20042;-60
2020/12/13 04:01:20;;;;;;;23.10;12.85;;;8.00;99.90;;;;;;5016699;28;20138;-60
2020/12/13 04:04:06;;;;;;;20.20;12.05;;;8.00;99.90;;;;;;5030924;28;20117;-60
2020/12/13 04:06:52;;;;;;;24.38;12.68;;;7.90;99.90;;;;;;5031006;28;20042;-60
2020/12/13 04:09:38;;;;;;;22.33;12.30;;;8.00;99.90;;;;;;5017562;28;20128;-60
2020/12/13 04:12:24;;;;;;;24.27;13.30;;;8.10;99.90;;;;;;5031002;28;20124;-60
2020/12/13 04:15:10;;;;;;;19.92;11.93;;;8.10;99.90;;;;;;5030316;28;20034;-60
2020/12/13 04:17:56;;;;;;;21.77;11.43;;;8.00;99.90;;;;;;5030419;28;20110;-60
2020/12/13 04:20:42;;;;;;;24.77;12.45;;;8.10;99.90;;;;;;5030374;28;20109;-60
2020/12/13 04:23:28;;;;;;;19.35;11.38;;;8.00;99.90;;;;;;5031113;28;20188;-61
2020/12/13 04:26:14;;;;;;;19.15;11.27;;;7.90;99.90;;;;;;5030847;28;20105;-60
2020/12/13 04:29:00;;;;;;;16.48;10.38;;;7.90;99.90;;;;;;5030399;28;20103;-60
2020/12/13 04:31:46;;;;;;;19.08;11.60;;;7.90;99.90;;;;;;5031221;28;20034;-60
2020/12/13 04:34:32;;;;;;;19.73;10.88;;;8.00;99.90;;;;;;5029453;28;20043;-60
2020/12/13 04:37:19;;;;;;;18.67;10.10;;;8.00;99.90;;;;;;5031395;28;20095;-60
2020/12/13 04:40:06;;;;;;;20.15;11.52;;;8.00;99.90;;;;;;5030281;28;20135;-60
2020/12/13 04:42:52;;;;;;;18.40;10.48;;;8.00;99.90;;;;;;5030680;28;20383;-60
2020/12/13 04:45:39;;;;;;;22.15;10.23;;;8.00;99.90;;;;;;5017788;28;20459;-60
2020/12/13 04:48:26;;;;;;;20.02;10.15;;;8.00;99.90;;;;;;5016628;28;20048;-60
2020/12/13 04:51:18;;;;;;;17.95;9.88;;;8.00;99.90;;;;;;5017343;28;20033;-60
2020/12/13 04:54:05;;;;;;;18.02;9.98;;;8.00;99.90;;;;;;5016237;28;20482;-60
2020/12/13 04:56:54;;;;;;;16.05;9.95;;;8.00;99.90;;;;;;5015275;28;20064;-60
2020/12/13 04:59:40;;;;;;;19.83;10.50;;;8.00;99.90;;;;;;5017547;28;20418;-60
2020/12/13 05:02:26;;;;;;;19.85;9.20;;;8.00;99.90;;;;;;5015520;28;20041;-60
2020/12/13 05:05:14;;;;;;;17.50;9.55;;;8.00;99.90;;;;;;5031121;28;20037;-60
2020/12/13 05:08:00;;;;;;;18.90;9.35;;;7.90;99.90;;;;;;5016431;28;20030;-60
2020/12/13 05:10:46;;;;;;;19.13;10.75;;;8.00;99.90;;;;;;5029937;28;20068;-60
2020/12/13 05:13:32;;;;;;;15.98;9.82;;;8.00;99.90;;;;;;5031396;28;20041;-60
2020/12/13 05:16:18;;;;;;;18.10;9.38;;;8.00;99.90;;;;;;5029649;28;20120;-60
2020/12/13 05:19:06;;;;;;;16.20;8.45;;;8.00;99.90;;;;;;5031185;28;20096;-61
2020/12/13 05:21:53;;;;;;;15.82;9.23;;;8.00;99.90;;;;;;5030587;28;20045;-60
2020/12/13 05:24:40;;;;;;;16.55;8.98;;;8.00;99.90;;;;;;5016419;28;20048;-60
2020/12/13 05:27:39;;;;;;;17.10;9.65;;;8.10;99.90;;;;;;5016511;28;20410;-60
2020/12/13 05:30:36;;;;;;;17.70;9.35;;;8.00;99.90;;;;;;5033569;28;20037;-60
2020/12/13 05:36:15;;;;;;;16.40;9.23;;;8.00;99.90;;;;;;5033951;28;20037;-60
2020/12/13 05:39:02;;;;;;;16.52;8.63;;;8.00;99.90;;;;;;5034697;28;20044;-60
2020/12/13 05:41:52;;;;;;;18.52;9.00;;;7.90;99.90;;;;;;5019687;28;20085;-60
2020/12/13 05:45:25;;;;;;;16.80;9.32;;;8.00;99.90;;;;;;5033808;28;20057;-60
2020/12/13 05:48:15;;;;;;;13.88;8.75;;;7.90;99.90;;;;;;5033732;28;20552;-60
2020/12/13 05:53:55;;;;;;;19.42;10.68;;;8.00;99.90;;;;;;5032550;28;20137;-60
2020/12/13 05:56:41;;;;;;;16.38;8.70;;;8.00;99.90;;;;;;5033424;28;20033;-60
2020/12/13 05:59:31;;;;;;;20.17;10.52;;;7.90;99.90;;;;;;5034761;28;20049;-60
2020/12/13 06:02:17;;;;;;;15.40;9.55;;;7.80;99.90;;;;;;5034161;28;20453;-61
2020/12/13 06:05:06;;;;;;;17.10;10.07;;;7.80;99.90;;;;;;5019493;28;20486;-60
2020/12/13 06:07:56;;;;;;;20.65;10.75;;;7.90;99.90;;;;;;5019617;28;20034;-60
2020/12/13 06:10:44;;;;;;;17.73;9.98;;;8.00;99.90;;;;;;5020037;28;20108;-60
2020/12/13 06:13:37;;;;;;;20.48;10.85;;;8.10;99.90;;;;;;5033277;28;20478;-60
2020/12/13 06:16:23;;;;;;;21.20;11.60;;;8.00;99.90;;;;;;5019736;28;20038;-61
2020/12/13 06:19:15;;;;;;;21.60;12.05;;;8.10;99.90;;;;;;5033008;28;20490;-61
2020/12/13 06:22:03;;;;;;;21.48;11.63;;;8.00;99.90;;;;;;5019221;28;20092;-60
2020/12/13 06:24:53;;;;;;;21.48;11.85;;;7.90;99.90;;;;;;5018761;28;20470;-61
2020/12/13 06:27:39;;;;;;;19.90;10.65;;;7.90;99.90;;;;;;5019191;28;20044;-61
2020/12/13 06:30:26;;;;;;;19.20;11.18;;;8.00;99.90;;;;;;5033231;28;20036;-61
2020/12/13 06:33:12;;;;;;;19.45;10.98;;;8.10;99.90;;;;;;5018897;28;20037;-61
2020/12/13 06:36:00;;;;;;;20.25;12.32;;;8.10;99.90;;;;;;5032954;28;20127;-61
2020/12/13 06:38:49;;;;;;;21.88;12.88;;;8.00;99.90;;;;;;5018537;28;20394;-61
2020/12/13 06:41:35;;;;;;;29.63;15.35;;;8.00;99.90;;;;;;5031140;28;20045;-62
2020/12/13 06:44:23;;;;;;;28.98;16.55;;;8.00;99.90;;;;;;5031927;28;20144;-61
2020/12/13 06:47:23;;;;;;;31.45;17.73;;;8.10;99.90;;;;;;5032840;28;20049;-61
2020/12/13 06:50:19;;;;;;;34.43;18.20;;;8.30;99.90;;;;;;5019329;28;20103;-61
2020/12/13 06:53:16;;;;;;;28.52;15.98;;;8.10;99.90;;;;;;5005351;28;20276;-61
2020/12/13 06:56:10;;;;;;;32.67;17.50;;;8.10;99.90;;;;;;5032680;28;20069;-61
2020/12/13 06:59:01;;;;;;;28.45;15.10;;;8.10;99.90;;;;;;5017873;28;20446;-61
2020/12/13 07:01:47;;;;;;;27.30;14.52;;;8.10;99.90;;;;;;5027228;28;20042;-61
2020/12/13 07:04:35;;;;;;;27.98;15.55;;;8.10;99.90;;;;;;5031806;28;20502;-58
2020/12/13 07:07:25;;;;;;;21.88;12.40;;;8.10;99.90;;;;;;5030836;28;20506;-65
2020/12/13 07:10:11;;;;;;;24.30;13.32;;;8.20;99.90;;;;;;5032877;28;20088;-65
2020/12/13 07:13:00;;;;;;;18.58;11.25;;;8.30;99.90;;;;;;5032832;28;20041;-62
2020/12/13 07:16:10;;;;;;;22.92;11.45;;;8.30;99.90;;;;;;5032895;28;20128;-63
2020/12/13 07:19:03;;;;;;;18.77;10.38;;;8.00;99.90;;;;;;5019826;28;20048;-62
2020/12/13 07:21:49;;;;;;;19.38;11.75;;;8.00;99.90;;;;;;5031548;28;20044;-62
2020/12/13 07:24:35;;;;;;;19.90;11.35;;;8.00;99.90;;;;;;5031336;28;20029;-60
2020/12/13 07:27:22;;;;;;;18.05;9.57;;;8.10;99.90;;;;;;5032159;28;20091;-62
2020/12/13 07:30:12;;;;;;;15.75;8.65;;;8.00;99.90;;;;;;5033022;28;20399;-62
2020/12/13 07:32:58;;;;;;;15.82;9.18;;;8.10;99.90;;;;;;5032525;28;20048;-66
2020/12/13 07:35:44;;;;;;;17.50;9.27;;;8.10;99.90;;;;;;5032017;28;20045;-64
2020/12/13 07:38:30;;;;;;;15.95;8.50;;;8.10;99.90;;;;;;5032159;28;20029;-63
2020/12/13 07:41:22;;;;;;;14.00;8.20;;;8.20;99.90;;;;;;5031750;28;20657;-63
2020/12/13 07:44:13;;;;;;;15.98;8.90;;;8.20;99.90;;;;;;5030302;28;20096;-65
2020/12/13 07:46:59;;;;;;;14.63;8.93;;;8.10;99.90;;;;;;5031594;28;20371;-64
2020/12/13 07:49:45;;;;;;;22.33;11.82;;;8.20;99.90;;;;;;5017339;28;20066;-64
2020/12/13 07:52:31;;;;;;;20.40;11.35;;;8.30;99.90;;;;;;5030388;28;20129;-63
2020/12/13 07:55:17;;;;;;;18.00;10.38;;;8.30;99.90;;;;;;5016751;28;20522;-68
2020/12/13 07:58:03;;;;;;;17.33;10.02;;;8.20;99.90;;;;;;5032158;28;20498;-66
2020/12/13 08:00:49;;;;;;;19.15;11.25;;;8.30;99.90;;;;;;5031214;28;20026;-69
2020/12/13 08:03:45;;;;;;;22.15;10.90;;;8.40;99.90;;;;;;5031246;28;20116;-66
2020/12/13 08:06:32;;;;;;;17.40;10.65;;;8.30;99.90;;;;;;5030874;28;20033;-68
2020/12/13 08:09:18;;;;;;;14.52;8.70;;;8.30;99.90;;;;;;5011500;28;20050;-68
2020/12/13 08:12:05;;;;;;;12.60;7.38;;;8.40;99.90;;;;;;5012154;28;20659;-66
2020/12/13 08:14:51;;;;;;;13.02;7.60;;;8.30;99.90;;;;;;5010206;28;20034;-63
2020/12/13 08:17:40;;;;;;;16.50;8.40;;;8.20;99.90;;;;;;5011499;28;20049;-64
2020/12/13 08:20:29;;;;;;;16.55;9.75;;;8.20;99.90;;;;;;5010027;28;20050;-64
2020/12/13 08:23:17;;;;;;;13.88;8.13;;;8.10;99.90;;;;;;5010979;28;20026;-63
2020/12/13 08:26:05;;;;;;;15.45;9.07;;;8.10;99.90;;;;;;5010491;28;20037;-62
2020/12/13 08:28:53;;;;;;;14.07;8.82;;;7.90;99.90;;;;;;5011636;28;20030;-63
2020/12/13 08:31:40;;;;;;;16.77;9.32;;;7.90;99.90;;;;;;5011192;28;20038;-66
2020/12/13 08:34:29;;;;;;;17.13;9.52;;;7.90;99.90;;;;;;5009385;28;20041;-65
2020/12/13 08:37:24;;;;;;;17.55;10.40;;;7.90;99.90;;;;;;5016661;28;20037;-65
2020/12/13 08:40:10;;;;;;;14.57;9.00;;;8.00;99.90;;;;;;5030843;28;20040;-66
2020/12/13 08:42:56;;;;;;;13.85;8.23;;;8.20;99.90;;;;;;5030105;28;20119;-66
2020/12/13 08:45:43;;;;;;;14.02;7.38;;;8.30;99.90;;;;;;5016152;28;20048;-66
2020/12/13 08:48:29;;;;;;;11.32;6.53;;;8.40;99.90;;;;;;5030571;28;20149;-66
2020/12/13 08:51:16;;;;;;;10.40;6.72;;;8.60;99.90;;;;;;5030107;28;20033;-65
2020/12/13 08:54:04;;;;;;;14.18;7.32;;;8.70;99.90;;;;;;5030632;28;20477;-66
2020/12/13 08:56:54;;;;;;;14.18;7.22;;;8.70;99.90;;;;;;5016058;28;20026;-66
2020/12/13 08:59:40;;;;;;;11.52;6.78;;;8.80;99.90;;;;;;5030613;28;20069;-66
2020/12/13 09:02:26;;;;;;;15.05;7.85;;;8.80;99.90;;;;;;5029988;28;20045;-65
2020/12/13 09:05:12;;;;;;;10.43;7.05;;;8.80;99.90;;;;;;5030801;28;20486;-68
2020/12/13 09:07:59;;;;;;;12.63;7.85;;;8.80;99.90;;;;;;5033604;28;20056;-66
2020/12/13 09:10:45;;;;;;;10.55;7.10;;;8.80;99.90;;;;;;5034710;28;20052;-65
2020/12/13 09:13:32;;;;;;;11.65;6.03;;;8.70;99.90;;;;;;5033210;28;20455;-65
2020/12/13 09:16:26;;;;;;;12.15;6.13;;;8.70;99.90;;;;;;5035027;28;20096;-65
2020/12/13 09:19:13;;;;;;;10.65;6.20;;;8.80;99.90;;;;;;5034563;28;20056;-65
2020/12/13 09:22:01;;;;;;;11.38;5.95;;;8.70;99.90;;;;;;5034950;28;20394;-65
2020/12/13 09:24:49;;;;;;;10.32;6.15;;;8.70;99.90;;;;;;5035794;28;20497;-66
2020/12/13 09:27:35;;;;;;;16.50;9.02;;;8.70;99.90;;;;;;5034768;28;20033;-66
2020/12/13 09:30:21;;;;;;;16.50;8.20;;;8.70;99.90;;;;;;5034224;28;20083;-66
2020/12/13 09:33:08;;;;;;;12.90;7.03;;;8.80;99.90;;;;;;5034107;28;20037;-66
2020/12/13 09:35:54;;;;;;;9.35;5.90;;;8.90;99.90;;;;;;5033596;28;20040;-66
2020/12/13 09:38:40;;;;;;;13.73;7.28;;;8.80;99.90;;;;;;5033259;28;20038;-66
2020/12/13 09:41:26;;;;;;;12.63;6.90;;;8.70;99.90;;;;;;5033845;28;20054;-66
2020/12/13 09:44:12;;;;;;;11.07;7.18;;;8.70;99.90;;;;;;5033703;28;20040;-66
2020/12/13 09:47:00;;;;;;;13.32;6.82;;;8.80;99.90;;;;;;5018615;28;20040;-66
2020/12/13 09:49:46;;;;;;;9.80;6.55;;;8.90;99.90;;;;;;5019149;28;20029;-65
2020/12/13 09:52:32;;;;;;;12.70;7.28;;;8.90;99.90;;;;;;5032964;28;20045;-65
2020/12/13 09:55:18;;;;;;;10.52;6.82;;;8.90;99.90;;;;;;5031730;28;20548;-65
2020/12/13 09:58:05;;;;;;;12.93;6.88;;;9.00;99.90;;;;;;5033982;28;20099;-66
2020/12/13 10:00:51;;;;;;;12.65;5.43;;;9.10;99.90;;;;;;5032770;28;20039;-67
2020/12/13 10:03:39;;;;;;;12.77;7.03;;;9.10;99.90;;;;;;5032014;28;20040;-66
2020/12/13 10:09:12;;;;;;;8.52;5.03;;;9.10;99.90;;;;;;5034018;28;20037;-65
2020/12/13 10:11:58;;;;;;;10.35;5.55;;;9.20;99.90;;;;;;5018269;28;20038;-53
2020/12/13 10:14:45;;;;;;;9.93;4.95;;;9.20;99.90;;;;;;5033851;28;20029;-56
2020/12/13 10:17:31;;;;;;;6.60;4.53;;;9.00;99.90;;;;;;5032846;28;20375;-51
2020/12/13 10:20:17;;;;;;;7.88;3.85;;;9.10;99.90;;;;;;5033078;28;20044;-51
2020/12/13 10:23:03;;;;;;;9.13;4.82;;;9.20;99.90;;;;;;5033127;28;20109;-53
2020/12/13 10:25:49;;;;;;;8.95;4.80;;;9.30;99.90;;;;;;5033616;28;20071;-54
2020/12/13 10:28:35;;;;;;;7.10;4.50;;;9.30;99.90;;;;;;5032268;28;20068;-55
2020/12/13 10:31:35;;;;;;;10.32;5.43;;;9.10;99.90;;;;;;5032283;28;20116;-49
2020/12/13 10:34:22;;;;;;;12.43;6.95;;;9.30;99.90;;;;;;5034126;28;20038;-50
2020/12/13 10:37:08;;;;;;;10.57;5.82;;;9.50;99.90;;;;;;5032267;28;20490;-68
2020/12/13 10:39:54;;;;;;;9.02;5.55;;;9.60;99.90;;;;;;5031965;28;20040;-65
2020/12/13 10:42:40;;;;;;;9.45;5.50;;;9.60;99.90;;;;;;5017125;28;20100;-64
2020/12/13 10:45:26;;;;;;;11.00;6.32;;;9.50;99.90;;;;;;5032091;28;20029;-65
2020/12/13 10:48:12;;;;;;;15.13;6.72;;;9.50;99.90;;;;;;5019152;28;20048;-53
2020/12/13 10:50:59;;;;;;;7.50;4.65;;;9.50;99.90;;;;;;5032810;28;20029;-56
2020/12/13 10:53:46;;;;;;;7.53;3.92;;;9.50;99.90;;;;;;5031206;28;20025;-55
2020/12/13 10:56:33;;;;;;;8.70;3.92;;;9.60;99.90;;;;;;5032541;28;20375;-54
2020/12/13 10:59:19;;;;;;;7.15;4.10;;;9.60;99.90;;;;;;5032772;28;20045;-54
2020/12/13 11:02:05;;;;;;;5.70;3.53;;;9.60;99.90;;;;;;5031697;28;20049;-55
2020/12/13 11:04:51;;;;;;;7.18;3.83;;;9.60;99.90;;;;;;5032775;28;20032;-54
2020/12/13 11:07:37;;;;;;;7.32;3.63;;;9.60;99.90;;;;;;5031456;28;20037;-53
2020/12/13 11:10:23;;;;;;;8.27;4.55;;;9.50;99.90;;;;;;5031247;28;20035;-54
2020/12/13 11:13:09;;;;;;;8.48;3.15;;;9.60;99.90;;;;;;5032818;28;20042;-52
2020/12/13 11:15:55;;;;;;;4.97;3.10;;;9.70;99.90;;;;;;5032811;28;20029;-50
2020/12/13 11:18:42;;;;;;;7.22;4.00;;;9.80;99.90;;;;;;5031929;28;20136;-53
2020/12/13 11:21:28;;;;;;;5.68;3.47;;;9.90;99.90;;;;;;5018460;28;20049;-50
2020/12/13 11:24:14;;;;;;;6.72;3.35;;;10.00;99.90;;;;;;5033431;28;20026;-55
2020/12/13 11:27:00;;;;;;;6.85;3.35;;;9.90;99.90;;;;;;5032491;28;20095;-52
2020/12/13 11:29:46;;;;;;;5.90;3.80;;;9.90;99.90;;;;;;5033084;28;20064;-56
2020/12/13 11:32:32;;;;;;;8.38;4.05;;;10.00;99.90;;;;;;5033181;28;20418;-50
2020/12/13 11:35:19;;;;;;;6.97;3.58;;;10.00;99.90;;;;;;5032531;28;20554;-52
2020/12/13 11:38:05;;;;;;;10.00;3.80;;;10.10;99.90;;;;;;5032860;28;20379;-56
2020/12/13 11:40:51;;;;;;;5.03;3.25;;;9.90;99.90;;;;;;5030486;28;20092;-54
2020/12/13 11:43:37;;;;;;;7.30;3.67;;;10.10;99.90;;;;;;5032607;28;20387;-51
2020/12/13 11:46:23;;;;;;;12.68;7.38;;;10.10;99.90;;;;;;5031803;28;20037;-53
2020/12/13 11:49:09;;;;;;;8.32;4.07;;;10.00;99.90;;;;;;5032204;28;20033;-65
2020/12/13 11:51:55;;;;;;;5.38;3.10;;;10.30;99.90;;;;;;5032660;28;20123;-67
2020/12/13 11:54:41;;;;;;;6.32;2.88;;;10.40;99.90;;;;;;5016693;28;20036;-64
2020/12/13 11:57:28;;;;;;;5.47;3.20;;;10.70;99.90;;;;;;5031099;28;20128;-63
2020/12/13 12:00:14;;;;;;;6.25;3.33;;;10.70;99.90;;;;;;5031514;28;20038;-63
2020/12/13 12:03:00;;;;;;;8.00;3.70;;;10.70;99.90;;;;;;5030298;28;20037;-63
2020/12/13 12:05:46;;;;;;;3.28;1.88;;;10.80;99.90;;;;;;5031254;28;20517;-62
2020/12/13 12:08:32;;;;;;;3.05;1.50;;;10.80;99.90;;;;;;5031398;28;20037;-65
2020/12/13 12:11:20;;;;;;;2.92;1.20;;;10.70;99.90;;;;;;5030731;28;20052;-64
2020/12/13 12:14:11;;;;;;;5.97;2.55;;;10.80;99.90;;;;;;5031115;28;20099;-64
2020/12/13 12:16:57;;;;;;;4.25;1.48;;;10.90;99.90;;;;;;5017479;28;20120;-64
2020/12/13 12:19:44;;;;;;;3.65;1.83;;;10.90;99.90;;;;;;5031627;28;20456;-64
2020/12/13 12:22:30;;;;;;;4.97;2.00;;;11.20;99.90;;;;;;5030245;28;20025;-64
2020/12/13 12:25:16;;;;;;;4.97;2.67;;;11.50;99.90;;;;;;5030551;28;20030;-64
2020/12/13 12:28:02;;;;;;;6.32;1.48;;;11.10;99.90;;;;;;5029568;28;20360;-67
2020/12/13 12:30:48;;;;;;;5.78;1.55;;;11.50;99.90;;;;;;5016021;28;20470;-67
2020/12/13 12:33:35;;;;;;;1.83;1.08;;;11.60;99.90;;;;;;5030719;28;20033;-68
2020/12/13 12:36:24;;;;;;;4.20;2.08;;;11.70;99.90;;;;;;5015944;28;20030;-66
2020/12/13 12:39:10;;;;;;;7.50;2.10;;;11.60;99.90;;;;;;5027983;28;20088;-65
2020/12/13 12:41:56;;;;;;;3.95;1.77;;;11.30;99.90;;;;;;5014650;28;20045;-66
2020/12/13 12:44:45;;;;;;;4.10;1.90;;;11.30;99.90;;;;;;5030727;28;20034;-68
2020/12/13 12:47:31;;;;;;;4.28;2.40;;;11.40;99.90;;;;;;5030391;28;20127;-66
2020/12/13 12:50:18;;;;;;;2.63;1.35;;;12.20;99.90;;;;;;5030960;28;20120;-72
2020/12/13 12:53:04;;;;;;;2.58;1.48;;;12.90;99.90;;;;;;5031126;28;20046;-63
2020/12/13 12:55:50;;;;;;;2.78;1.45;;;13.60;99.90;;;;;;5029416;28;20033;-69
2020/12/13 13:01:46;;;;;;;2.75;1.48;;;14.00;99.90;;;;;;5028968;28;20064;-66
2020/12/13 13:04:39;;;;;;;4.75;1.75;;;13.80;99.90;;;;;;5028803;28;20068;-65
2020/12/13 13:07:28;;;;;;;3.58;1.73;;;14.00;99.70;;;;;;5016420;28;20099;-63
2020/12/13 13:10:19;;;;;;;7.90;2.08;;;14.70;99.90;;;;;;5031702;28;20120;-62
2020/12/13 13:13:05;;;;;;;3.70;1.60;;;14.00;99.70;;;;;;5015702;28;20033;-65
2020/12/13 13:15:57;;;;;;;5.43;1.50;;;14.50;98.70;;;;;;5030441;28;20052;-68
2020/12/13 13:18:44;;;;;;;4.05;1.73;;;14.40;98.90;;;;;;5029071;28;20061;-64
2020/12/13 13:21:48;;;;;;;4.47;1.50;;;14.10;98.60;;;;;;5031061;28;20069;-63
2020/12/13 13:24:34;;;;;;;3.50;1.50;;;14.10;99.90;;;;;;5029537;28;20069;-63
2020/12/13 13:27:20;;;;;;;2.53;1.17;;;14.30;99.90;;;;;;5029495;28;20092;-63
2020/12/13 13:30:11;;;;;;;2.60;1.10;;;14.30;99.40;;;;;;5031336;28;20041;-61
2020/12/13 13:32:58;;;;;;;4.75;1.48;;;13.60;99.40;;;;;;5029958;28;20132;-62
2020/12/13 13:35:44;;;;;;;3.50;1.58;;;12.10;99.90;;;;;;5030912;28;20053;-63
2020/12/13 13:38:30;;;;;;;4.82;1.63;;;11.70;99.90;;;;;;5030722;28;20025;-64
2020/12/13 13:41:26;;;;;;;4.78;1.70;;;11.30;99.90;;;;;;5030973;28;20041;-65
2020/12/13 13:44:18;;;;;;;4.05;1.60;;;11.00;99.90;;;;;;5030311;28;20465;-63
2020/12/13 13:47:31;;;;;;;4.88;1.73;;;10.70;99.90;;;;;;5030280;28;20049;-63
2020/12/13 13:50:12;;;;;;;3.72;1.70;;;10.90;99.90;;;;;;5030762;28;20503;-63
2020/12/13 13:52:58;;;;;;;4.35;1.80;;;10.90;99.90;;;;;;5033716;28;20710;-63
2020/12/13 13:55:55;;;;;;;5.38;1.88;;;10.80;99.90;;;;;;5033538;28;20502;-63
2020/12/13 13:58:44;;;;;;;4.78;1.92;;;10.80;99.90;;;;;;5033724;28;20040;-63
2020/12/13 14:01:35;;;;;;;5.18;2.00;;;10.80;99.90;;;;;;5034631;28;20406;-64
2020/12/13 14:04:21;;;;;;;6.53;2.30;;;10.90;99.90;;;;;;5033039;28;20622;-64
2020/12/13 14:07:29;;;;;;;8.20;2.00;;;10.90;99.90;;;;;;5031920;28;20454;-64
2020/12/13 14:10:14;;;;;;;5.68;2.13;;;11.10;99.90;;;;;;5034084;28;20064;-63
2020/12/13 14:13:00;;;;;;;5.35;1.50;;;11.50;99.90;;;;;;5032622;28;20029;-64
2020/12/13 14:15:46;;;;;;;2.85;1.35;;;12.00;99.90;;;;;;5033814;28;20033;-63
2020/12/13 14:18:32;;;;;;;8.20;3.58;;;12.30;99.90;;;;;;5017932;28;20029;-64
2020/12/13 14:21:18;;;;;;;2.78;1.25;;;12.30;99.90;;;;;;5032485;28;20069;-53
2020/12/13 14:24:04;;;;;;;3.95;1.52;;;12.00;99.90;;;;;;5032412;28;20028;-51
2020/12/13 14:26:50;;;;;;;3.83;1.35;;;12.20;99.90;;;;;;5034278;28;20671;-52
2020/12/13 14:29:36;;;;;;;4.32;1.20;;;12.30;99.90;;;;;;5032460;28;20543;-48
2020/12/13 14:32:22;;;;;;;7.07;2.92;;;12.40;99.90;;;;;;5032472;28;20514;-51
2020/12/13 14:35:09;;;;;;;7.55;1.77;;;12.30;99.90;;;;;;5032463;28;20124;-53
2020/12/13 14:37:55;;;;;;;8.70;3.65;;;12.40;99.90;;;;;;5017999;28;20041;-52
2020/12/13 14:40:41;;;;;;;5.20;2.08;;;12.20;99.90;;;;;;5032280;28;20172;-51
2020/12/13 14:43:27;;;;;;;3.47;1.30;;;11.90;99.90;;;;;;5032368;28;20065;-50